createdAt,value
2017-07-25T00:00:24.159Z,8.30
2017-07-25T00:02:51.715Z,8.50
2017-07-25T00:05:19.247Z,9.53
2017-07-25T00:07:46.801Z,9.47
2017-07-25T00:10:14.338Z,6.27
2017-07-25T00:12:42.667Z,8.40
2017-07-25T00:15:10.202Z,11.80
2017-07-25T00:17:37.766Z,12.60
2017-07-25T00:20:05.296Z,9.93
2017-07-25T00:22:33.594Z,7.57
2017-07-25T00:25:01.151Z,9.17
2017-07-25T00:27:28.682Z,9.67
2017-07-25T00:29:56.235Z,9.37
2017-07-25T00:32:23.767Z,8.90
2017-07-25T00:34:51.321Z,9.80
2017-07-25T00:37:18.863Z,11.00
2017-07-25T00:39:46.418Z,9.07
2017-07-25T00:42:13.951Z,10.30
2017-07-25T00:44:41.514Z,12.00
2017-07-25T00:47:09.814Z,12.40
2017-07-25T00:49:37.360Z,9.57
2017-07-25T00:52:05.665Z,8.80
2017-07-25T00:54:33.223Z,8.17
2017-07-25T00:57:00.754Z,7.50
2017-07-25T00:59:29.070Z,9.30
2017-07-25T01:01:56.699Z,7.57
2017-07-25T01:04:24.251Z,9.10
2017-07-25T01:06:51.801Z,10.47
2017-07-25T01:09:20.120Z,9.27
2017-07-25T01:11:47.651Z,9.90
2017-07-25T01:14:16.101Z,8.80
2017-07-25T01:16:43.642Z,10.80
2017-07-25T01:19:11.190Z,8.10
2017-07-25T01:21:38.727Z,10.77
2017-07-25T01:24:06.283Z,9.30
2017-07-25T01:26:33.815Z,7.47
2017-07-25T01:29:02.115Z,8.80
2017-07-25T01:31:29.690Z,9.70
2017-07-25T01:33:57.227Z,8.93
2017-07-25T01:36:30.591Z,10.20
2017-07-25T01:38:58.131Z,10.27
2017-07-25T01:41:25.682Z,9.10
2017-07-25T01:43:53.216Z,13.63
2017-07-25T01:46:20.775Z,11.97
2017-07-25T01:48:48.312Z,14.70
2017-07-25T01:51:16.635Z,13.40
2017-07-25T01:53:44.169Z,14.10
2017-07-25T01:56:11.729Z,15.17
2017-07-25T01:58:39.271Z,15.30
2017-07-25T02:01:07.599Z,15.30
2017-07-25T02:03:35.130Z,15.83
2017-07-25T02:06:02.693Z,13.50
2017-07-25T02:08:30.226Z,13.20
2017-07-25T02:10:58.555Z,12.90
2017-07-25T02:13:26.087Z,16.37
2017-07-25T02:15:53.639Z,15.23
2017-07-25T02:18:21.179Z,12.67
2017-07-25T02:20:49.510Z,15.00
2017-07-25T02:23:17.047Z,15.67
2017-07-25T02:25:44.607Z,15.50
2017-07-25T02:28:12.138Z,16.23
2017-07-25T02:30:40.466Z,15.37
2017-07-25T02:33:08.008Z,14.90
2017-07-25T02:35:35.552Z,15.83
2017-07-25T02:38:03.121Z,15.93
2017-07-25T02:40:30.668Z,18.13
2017-07-25T02:42:58.217Z,17.10
2017-07-25T02:45:26.518Z,15.33
2017-07-25T02:47:54.082Z,15.37
2017-07-25T02:50:26.562Z,17.23
2017-07-25T02:52:54.114Z,16.67
2017-07-25T02:55:21.656Z,16.57
2017-07-25T02:57:49.223Z,17.80
2017-07-25T03:00:16.757Z,17.93
2017-07-25T03:02:44.322Z,16.50
2017-07-25T03:05:12.636Z,17.77
2017-07-25T03:07:40.190Z,17.60
2017-07-25T03:10:07.714Z,16.53
2017-07-25T03:12:36.041Z,18.17
2017-07-25T03:15:03.582Z,20.13
2017-07-25T03:17:31.146Z,20.57
2017-07-25T03:19:58.678Z,15.70
2017-07-25T03:22:27.006Z,17.73
2017-07-25T03:24:54.559Z,21.90
2017-07-25T03:27:22.124Z,17.43
2017-07-25T03:29:49.666Z,18.77
2017-07-25T03:32:17.226Z,21.57
2017-07-25T03:34:44.765Z,18.73
2017-07-25T03:37:13.066Z,21.23
2017-07-25T03:39:40.632Z,20.33
2017-07-25T03:42:08.169Z,26.50
2017-07-25T03:44:35.738Z,22.07
2017-07-25T03:47:03.270Z,18.47
2017-07-25T03:49:31.602Z,19.07
2017-07-25T03:51:59.139Z,16.70
2017-07-25T03:54:26.698Z,17.03
2017-07-25T03:56:54.235Z,16.47
2017-07-25T03:59:22.563Z,20.10
2017-07-25T04:01:50.089Z,18.07
2017-07-25T04:04:17.653Z,16.83
2017-07-25T04:06:45.198Z,19.60
2017-07-25T04:09:12.758Z,18.10
2017-07-25T04:11:40.297Z,19.50
2017-07-25T04:14:07.864Z,22.23
2017-07-25T04:16:36.162Z,17.43
2017-07-25T04:19:03.726Z,20.00
2017-07-25T04:21:31.263Z,25.00
2017-07-25T04:23:59.586Z,19.03
2017-07-25T04:26:27.137Z,18.63
2017-07-25T04:28:54.703Z,19.17
2017-07-25T04:31:22.243Z,16.47
2017-07-25T04:33:49.809Z,24.80
2017-07-25T04:36:17.346Z,15.97
2017-07-25T04:38:44.890Z,16.13
2017-07-25T04:41:12.455Z,18.90
2017-07-25T04:43:40.767Z,21.27
2017-07-25T04:46:08.323Z,21.10
2017-07-25T04:48:35.860Z,23.57
2017-07-25T04:51:04.195Z,19.60
2017-07-25T04:53:31.726Z,21.13
2017-07-25T04:55:59.299Z,17.80
2017-07-25T04:58:26.832Z,18.53
2017-07-25T05:00:54.399Z,18.33
2017-07-25T05:03:21.938Z,20.63
2017-07-25T05:05:50.259Z,19.53
2017-07-25T05:08:17.791Z,22.30
2017-07-25T05:10:45.359Z,22.60
2017-07-25T05:13:12.886Z,17.17
2017-07-25T05:15:41.223Z,18.30
2017-07-25T05:18:08.762Z,18.20
2017-07-25T05:20:36.315Z,22.43
2017-07-25T05:23:03.847Z,19.43
2017-07-25T05:25:32.179Z,24.73
2017-07-25T05:27:59.734Z,20.17
2017-07-25T05:30:27.299Z,26.60
2017-07-25T05:32:54.834Z,23.27
2017-07-25T05:35:22.415Z,18.20
2017-07-25T05:37:49.942Z,23.70
2017-07-25T05:40:17.482Z,20.43
2017-07-25T05:42:45.810Z,24.93
2017-07-25T05:45:13.342Z,19.53
2017-07-25T05:47:40.895Z,20.83
2017-07-25T05:50:08.430Z,19.20
2017-07-25T05:52:35.991Z,19.03
2017-07-25T05:55:04.299Z,17.30
2017-07-25T05:57:33.691Z,18.13
2017-07-25T06:00:01.231Z,19.70
2017-07-25T06:02:29.562Z,19.13
2017-07-25T06:04:57.098Z,17.13
2017-07-25T06:07:24.654Z,21.27
2017-07-25T06:09:52.195Z,16.90
2017-07-25T06:12:20.528Z,22.13
2017-07-25T06:14:48.069Z,18.83
2017-07-25T06:17:15.660Z,17.33
2017-07-25T06:19:43.252Z,17.60
2017-07-25T06:22:11.574Z,21.97
2017-07-25T06:24:39.102Z,21.67
2017-07-25T06:27:06.663Z,21.20
2017-07-25T06:29:34.204Z,20.57
2017-07-25T06:32:02.550Z,29.27
2017-07-25T06:34:30.086Z,24.30
2017-07-25T06:36:57.636Z,21.80
2017-07-25T06:39:25.169Z,19.03
2017-07-25T06:41:53.509Z,16.67
2017-07-25T06:44:21.042Z,19.03
2017-07-25T06:46:48.566Z,15.63
2017-07-25T06:49:16.896Z,17.47
2017-07-25T06:51:44.426Z,21.67
2017-07-25T06:54:11.979Z,17.60
2017-07-25T06:56:39.515Z,17.80
2017-07-25T06:59:07.842Z,20.57
2017-07-25T07:01:35.382Z,15.10
2017-07-25T07:04:02.945Z,16.53
2017-07-25T07:06:30.471Z,17.30
2017-07-25T07:08:58.798Z,17.33
2017-07-25T07:11:26.329Z,17.10
2017-07-25T07:13:53.891Z,25.23
2017-07-25T07:16:21.438Z,19.90
2017-07-25T07:18:48.996Z,17.40
2017-07-25T07:24:11.582Z,27.47
2017-07-25T07:26:39.111Z,24.73
2017-07-25T07:29:07.438Z,20.47
2017-07-25T07:31:34.998Z,20.80
2017-07-25T07:34:02.621Z,16.60
2017-07-25T07:36:30.912Z,17.60
2017-07-25T07:38:58.476Z,18.57
2017-07-25T07:41:26.006Z,16.93
2017-07-25T07:43:54.387Z,18.37
2017-07-25T07:46:22.695Z,17.97
2017-07-25T07:48:50.250Z,18.50
2017-07-25T07:51:18.232Z,18.40
2017-07-25T07:53:45.810Z,18.07
2017-07-25T07:56:13.358Z,17.60
2017-07-25T07:58:43.214Z,20.77
2017-07-25T08:01:10.840Z,17.23
2017-07-25T08:03:41.055Z,20.40
2017-07-25T08:06:08.699Z,20.60
2017-07-25T08:08:36.231Z,25.30
2017-07-25T08:11:03.789Z,22.53
2017-07-25T08:13:32.111Z,19.17
2017-07-25T08:16:00.875Z,21.43
2017-07-25T08:18:28.742Z,25.07
2017-07-25T08:20:56.355Z,20.90
2017-07-25T08:23:23.887Z,25.13
2017-07-25T08:25:51.455Z,19.80
2017-07-25T08:28:18.987Z,22.13
2017-07-25T08:30:46.550Z,20.87
2017-07-25T08:33:14.075Z,20.73
2017-07-25T08:35:41.634Z,22.80
2017-07-25T08:38:09.934Z,21.17
2017-07-25T08:40:37.503Z,17.97
2017-07-25T08:43:05.043Z,21.27
2017-07-25T08:45:33.369Z,18.93
2017-07-25T08:48:00.900Z,20.00
2017-07-25T08:50:28.462Z,19.20
2017-07-25T08:52:56.003Z,18.33
2017-07-25T08:55:24.327Z,16.80
2017-07-25T08:57:51.857Z,16.60
2017-07-25T09:00:19.389Z,17.73
2017-07-25T09:02:47.720Z,25.97
2017-07-25T09:05:15.262Z,18.90
2017-07-25T09:07:42.822Z,18.47
2017-07-25T09:10:10.360Z,17.10
2017-07-25T09:12:37.919Z,18.27
2017-07-25T09:15:05.463Z,15.73
2017-07-25T09:17:33.797Z,15.27
2017-07-25T09:20:01.326Z,20.60
2017-07-25T09:22:28.891Z,16.47
2017-07-25T09:24:56.434Z,18.97
2017-07-25T09:27:24.751Z,19.87
2017-07-25T09:29:52.282Z,16.97
2017-07-25T09:32:19.838Z,16.90
2017-07-25T09:34:47.383Z,16.43
2017-07-25T09:37:15.710Z,16.13
2017-07-25T09:39:43.242Z,13.70
2017-07-25T09:42:10.795Z,17.40
2017-07-25T09:44:38.343Z,13.20
2017-07-25T09:47:06.671Z,11.60
2017-07-25T09:49:34.201Z,12.93
2017-07-25T09:52:01.798Z,12.50
2017-07-25T09:54:29.343Z,14.20
2017-07-25T09:56:56.904Z,13.20
2017-07-25T09:59:24.442Z,13.50
2017-07-25T10:01:51.988Z,12.20
2017-07-25T10:04:19.538Z,13.43
2017-07-25T10:06:47.831Z,12.60
2017-07-25T10:09:15.398Z,11.47
2017-07-25T10:11:42.935Z,13.23
2017-07-25T10:14:11.251Z,13.57
2017-07-25T10:16:38.796Z,10.23
2017-07-25T10:19:06.350Z,12.70
2017-07-25T10:21:33.882Z,10.60
2017-07-25T10:24:02.235Z,30.03
2017-07-25T10:26:29.770Z,9.67
2017-07-25T10:28:57.526Z,14.37
2017-07-25T10:31:25.055Z,8.77
2017-07-25T10:33:53.383Z,8.83
2017-07-25T10:36:20.907Z,10.70
2017-07-25T10:38:48.462Z,10.20
2017-07-25T10:41:15.997Z,9.43
2017-07-25T10:43:44.323Z,10.47
2017-07-25T10:46:11.847Z,9.23
2017-07-25T10:48:39.430Z,11.10
2017-07-25T10:51:06.962Z,9.70
2017-07-25T10:53:35.286Z,8.13
2017-07-25T10:56:02.806Z,9.27
2017-07-25T10:58:31.130Z,7.37
2017-07-25T11:00:58.658Z,8.47
2017-07-25T11:03:26.232Z,8.33
2017-07-25T11:05:53.763Z,8.30
2017-07-25T11:08:22.051Z,8.90
2017-07-25T11:10:49.611Z,8.90
2017-07-25T11:13:17.150Z,8.87
2017-07-25T11:15:45.474Z,7.60
2017-07-25T11:18:13.008Z,7.50
2017-07-25T11:20:40.595Z,10.50
2017-07-25T11:23:08.127Z,6.87
2017-07-25T11:25:35.675Z,9.90
2017-07-25T11:28:03.961Z,9.90
2017-07-25T11:30:31.517Z,6.10
2017-07-25T11:32:59.041Z,6.93
2017-07-25T11:35:26.599Z,7.23
2017-07-25T11:37:54.125Z,7.10
2017-07-25T11:40:21.683Z,7.60
2017-07-25T11:42:49.211Z,6.57
2017-07-25T11:45:17.530Z,9.70
2017-07-25T11:47:45.060Z,5.40
2017-07-25T11:50:12.609Z,6.30
2017-07-25T11:52:40.134Z,8.10
2017-07-25T11:55:07.701Z,4.67
2017-07-25T11:57:36.003Z,6.40
2017-07-25T12:00:04.336Z,7.60
2017-07-25T12:02:31.865Z,5.23
2017-07-25T12:04:59.399Z,4.30
2017-07-25T12:07:26.963Z,5.07
2017-07-25T12:09:54.487Z,5.37
2017-07-25T12:12:22.035Z,6.80
2017-07-25T12:14:49.559Z,8.00
2017-07-25T12:17:17.110Z,7.70
2017-07-25T12:19:44.639Z,7.33
2017-07-25T12:22:12.967Z,6.73
2017-07-25T12:24:40.498Z,7.67
2017-07-25T12:27:08.055Z,6.23
2017-07-25T12:29:35.597Z,5.43
2017-07-25T12:32:03.922Z,7.73
2017-07-25T12:34:31.442Z,4.37
2017-07-25T12:36:59.758Z,5.20
2017-07-25T12:39:27.283Z,5.27
2017-07-25T12:41:55.609Z,4.30
2017-07-25T12:44:23.133Z,4.90
2017-07-25T12:46:50.681Z,6.40
2017-07-25T12:49:18.214Z,5.30
2017-07-25T12:51:45.766Z,7.53
2017-07-25T12:54:13.295Z,4.90
2017-07-25T12:56:40.852Z,7.87
2017-07-25T12:59:08.379Z,4.47
2017-07-25T13:01:47.768Z,6.40
2017-07-25T13:04:15.304Z,5.57
2017-07-25T13:06:42.831Z,6.07
2017-07-25T13:09:11.151Z,6.73
2017-07-25T13:11:38.681Z,6.50
2017-07-25T13:14:06.230Z,8.10
2017-07-25T13:16:33.767Z,6.30
2017-07-25T13:19:01.321Z,7.80
2017-07-25T13:21:28.856Z,7.60
2017-07-25T13:23:56.414Z,7.03
2017-07-25T13:26:23.940Z,8.33
2017-07-25T13:28:51.496Z,5.60
2017-07-25T13:31:19.032Z,5.63
2017-07-25T13:33:47.355Z,8.10
2017-07-25T13:36:14.879Z,5.47
2017-07-25T13:38:43.194Z,4.37
2017-07-25T13:41:10.727Z,7.83
2017-07-25T13:43:38.287Z,6.10
2017-07-25T13:46:05.819Z,5.57
2017-07-25T13:48:33.394Z,5.50
2017-07-25T13:51:01.703Z,6.83
2017-07-25T13:53:29.266Z,6.47
2017-07-25T13:55:56.786Z,7.90
2017-07-25T13:58:25.122Z,6.30
2017-07-25T14:00:52.657Z,12.13
2017-07-25T14:03:20.212Z,7.07
2017-07-25T14:05:47.737Z,7.47
2017-07-25T14:08:16.025Z,5.90
2017-07-25T14:10:44.342Z,6.80
2017-07-25T14:13:11.866Z,7.37
2017-07-25T14:15:39.418Z,4.70
2017-07-25T14:18:07.723Z,6.37
2017-07-25T14:20:35.274Z,5.07
2017-07-25T14:23:02.811Z,12.43
2017-07-25T14:25:31.139Z,5.60
2017-07-25T14:27:58.668Z,5.90
2017-07-25T14:30:26.223Z,6.80
2017-07-25T14:32:53.762Z,6.33
2017-07-25T14:35:22.088Z,11.23
2017-07-25T14:37:49.611Z,9.03
2017-07-25T14:40:17.936Z,6.83
2017-07-25T14:42:45.472Z,5.40
2017-07-25T14:45:13.019Z,5.53
2017-07-25T14:47:40.543Z,5.03
2017-07-25T14:50:08.099Z,5.90
2017-07-25T14:52:35.635Z,6.00
2017-07-25T14:55:03.195Z,5.73
2017-07-25T14:57:30.727Z,7.67
2017-07-25T14:59:58.285Z,9.13
2017-07-25T15:02:25.916Z,6.10
2017-07-25T15:04:54.242Z,4.87
2017-07-25T15:07:21.774Z,7.40
2017-07-25T15:09:49.307Z,4.70
2017-07-25T15:12:16.858Z,6.30
2017-07-25T15:14:44.382Z,7.83
2017-07-25T15:17:11.932Z,8.00
2017-07-25T15:19:39.450Z,6.60
2017-07-25T15:22:07.761Z,5.27
2017-07-25T15:24:35.287Z,6.93
2017-07-25T15:27:03.610Z,9.80
2017-07-25T15:29:31.135Z,6.10
2017-07-25T15:31:59.451Z,6.80
2017-07-25T15:34:26.986Z,7.40
2017-07-25T15:36:56.072Z,6.70
2017-07-25T15:39:23.615Z,9.13
2017-07-25T15:41:51.935Z,6.40
2017-07-25T15:44:19.462Z,6.73
2017-07-25T15:46:47.783Z,7.53
2017-07-25T15:49:15.350Z,7.60
2017-07-25T15:51:42.902Z,8.33
2017-07-25T15:54:10.438Z,6.90
2017-07-25T15:56:37.989Z,6.70
2017-07-25T15:59:05.523Z,7.73
2017-07-25T16:01:33.842Z,7.63
2017-07-25T16:04:01.363Z,6.30
2017-07-25T16:06:29.714Z,5.47
2017-07-25T16:08:57.237Z,6.13
2017-07-25T16:11:24.775Z,13.00
2017-07-25T16:13:53.094Z,5.97
2017-07-25T16:16:20.624Z,7.80
2017-07-25T16:18:48.170Z,6.53
2017-07-25T16:21:16.462Z,6.00
2017-07-25T16:23:44.018Z,8.73
2017-07-25T16:26:11.552Z,7.73
2017-07-25T16:28:39.110Z,7.37
2017-07-25T16:31:07.407Z,6.20
2017-07-25T16:33:34.965Z,10.80
2017-07-25T16:36:03.258Z,6.10
2017-07-25T16:38:30.811Z,5.87
2017-07-25T16:40:58.360Z,5.90
2017-07-25T16:43:26.673Z,5.93
2017-07-25T16:45:54.193Z,5.57
2017-07-25T16:48:22.524Z,5.70
2017-07-25T16:50:50.055Z,8.73
2017-07-25T16:53:17.613Z,4.30
2017-07-25T16:55:45.138Z,7.23
2017-07-25T16:58:12.694Z,6.63
2017-07-25T17:00:40.990Z,8.10
2017-07-25T17:03:09.307Z,7.60
2017-07-25T17:05:36.840Z,5.87
2017-07-25T17:08:04.418Z,5.63
2017-07-25T17:10:31.943Z,6.00
2017-07-25T17:13:00.238Z,6.10
2017-07-25T17:15:27.800Z,8.00
2017-07-25T17:17:55.326Z,6.27
2017-07-25T17:20:23.651Z,4.87
2017-07-25T17:22:51.178Z,5.27
2017-07-25T17:25:19.498Z,5.63
2017-07-25T17:27:47.034Z,5.23
2017-07-25T17:30:14.590Z,6.57
2017-07-25T17:32:42.118Z,5.93
2017-07-25T17:35:09.671Z,4.77
2017-07-25T17:37:37.203Z,5.70
2017-07-25T17:40:04.763Z,4.50
2017-07-25T17:42:32.343Z,5.53
2017-07-25T17:44:59.899Z,6.70
2017-07-25T17:47:27.428Z,5.33
2017-07-25T17:49:54.988Z,5.10
2017-07-25T17:52:22.518Z,7.40
2017-07-25T17:54:50.070Z,6.23
2017-07-25T17:57:18.362Z,9.63
2017-07-25T17:59:45.918Z,9.50
2017-07-25T18:02:13.458Z,5.80
2017-07-25T18:04:41.783Z,4.60
2017-07-25T18:07:09.312Z,5.57
2017-07-25T18:09:36.883Z,7.03
2017-07-25T18:12:04.426Z,6.70
2017-07-25T18:14:31.954Z,6.20
2017-07-25T18:16:59.503Z,6.97
2017-07-25T18:19:27.032Z,3.67
2017-07-25T18:21:54.590Z,5.33
2017-07-25T18:24:22.132Z,7.60
2017-07-25T18:26:49.694Z,4.97
2017-07-25T18:29:17.228Z,4.80
2017-07-25T18:31:45.553Z,5.27
2017-07-25T18:34:13.088Z,8.07
2017-07-25T18:36:40.642Z,5.20
2017-07-25T18:39:08.166Z,5.27
2017-07-25T18:41:35.715Z,6.33
2017-07-25T18:44:03.249Z,5.23
2017-07-25T18:46:30.796Z,4.73
2017-07-25T18:48:58.319Z,7.20
2017-07-25T18:51:26.641Z,5.17
2017-07-25T18:53:54.170Z,5.73
2017-07-25T18:56:22.486Z,5.57
2017-07-25T18:58:50.012Z,14.80
2017-07-25T19:01:17.566Z,6.73
2017-07-25T19:03:45.859Z,5.10
2017-07-25T19:06:13.415Z,5.67
2017-07-25T19:08:40.951Z,5.37
2017-07-25T19:11:09.291Z,4.40
2017-07-25T19:13:36.815Z,5.60
2017-07-25T19:16:04.345Z,4.10
2017-07-25T19:18:32.660Z,4.93
2017-07-25T19:21:00.189Z,3.83
2017-07-25T19:23:28.504Z,6.43
2017-07-25T19:25:56.035Z,4.10
2017-07-25T19:28:24.356Z,6.37
2017-07-25T19:30:51.888Z,6.77
2017-07-25T19:33:19.443Z,5.20
2017-07-25T19:35:46.970Z,10.60
2017-07-25T19:38:14.516Z,3.90
2017-07-25T19:40:42.047Z,6.53
2017-07-25T19:43:09.598Z,7.33
2017-07-25T19:45:37.127Z,4.33
2017-07-25T19:48:05.441Z,5.70
2017-07-25T19:50:32.967Z,8.33
2017-07-25T19:53:01.286Z,10.53
2017-07-25T19:55:28.909Z,5.00
2017-07-25T19:57:56.490Z,6.20
2017-07-25T20:00:24.040Z,5.37
2017-07-25T20:02:51.683Z,8.17
2017-07-25T20:05:20.839Z,8.43
2017-07-25T20:07:48.499Z,10.57
2017-07-25T20:10:16.287Z,6.77
2017-07-25T20:12:44.673Z,11.20
2017-07-25T20:15:13.003Z,10.93
2017-07-25T20:17:40.968Z,9.97
2017-07-25T20:20:09.503Z,8.60
2017-07-25T20:22:37.103Z,9.37
2017-07-25T20:25:05.047Z,7.83
2017-07-25T20:27:32.703Z,7.00
2017-07-25T20:30:01.416Z,11.17
2017-07-25T20:32:29.022Z,7.40
2017-07-25T20:34:56.585Z,9.30
2017-07-25T20:37:24.219Z,8.87
2017-07-25T20:39:51.805Z,7.70
2017-07-25T20:42:19.358Z,8.00
2017-07-25T20:44:46.955Z,8.70
2017-07-25T20:47:15.311Z,12.80
2017-07-25T20:49:42.895Z,16.70
2017-07-25T20:52:11.203Z,12.10
2017-07-25T20:54:38.818Z,14.93
2017-07-25T20:57:07.121Z,17.37
2017-07-25T20:59:34.667Z,9.60
2017-07-25T21:02:03.022Z,14.13
2017-07-25T21:04:31.443Z,20.23
2017-07-25T21:06:58.986Z,15.40
2017-07-25T21:09:26.579Z,13.50
2017-07-25T21:11:54.146Z,15.97
2017-07-25T21:14:21.734Z,11.70
2017-07-25T21:16:49.270Z,12.33
2017-07-25T21:19:16.854Z,15.00
2017-07-25T21:21:44.419Z,13.03
2017-07-25T21:24:11.958Z,13.37
2017-07-25T21:26:39.517Z,13.17
2017-07-25T21:29:07.071Z,15.00
2017-07-25T21:31:34.667Z,14.90
2017-07-25T21:34:02.276Z,16.83
2017-07-25T21:36:29.880Z,15.00
2017-07-25T21:38:57.435Z,16.47
2017-07-25T21:41:25.002Z,13.53
2017-07-25T21:43:52.546Z,17.43
2017-07-25T21:46:20.150Z,12.50
2017-07-25T21:48:48.458Z,13.03
2017-07-25T21:51:16.025Z,11.73
2017-07-25T21:53:43.584Z,11.83
2017-07-25T21:56:11.145Z,12.63
2017-07-25T21:58:38.689Z,10.43
2017-07-25T22:01:18.049Z,15.97
2017-07-25T22:03:57.348Z,12.10
2017-07-25T22:06:25.670Z,14.10
2017-07-25T22:08:53.203Z,12.77
2017-07-25T22:11:20.759Z,12.73
2017-07-25T22:13:48.291Z,14.50
2017-07-25T22:16:16.615Z,12.20
2017-07-25T22:18:44.244Z,12.20
2017-07-25T22:21:11.807Z,16.53
2017-07-25T22:23:39.344Z,21.80
2017-07-25T22:26:06.983Z,14.07
2017-07-25T22:28:34.511Z,17.43
2017-07-25T22:51:13.691Z,18.60
2017-07-25T22:53:41.252Z,22.77
2017-07-25T22:56:08.791Z,20.53
2017-07-25T22:58:36.355Z,16.77
2017-07-25T23:01:03.895Z,18.47
2017-07-25T23:03:31.452Z,14.57
2017-07-25T23:05:58.993Z,18.23
2017-07-25T23:08:27.323Z,19.73
2017-07-25T23:10:54.851Z,14.00
2017-07-25T23:13:22.402Z,12.27
2017-07-25T23:15:50.702Z,17.27
2017-07-25T23:18:18.263Z,15.37
2017-07-25T23:20:45.790Z,17.53
2017-07-25T23:23:14.114Z,17.07
2017-07-25T23:25:41.650Z,21.20
2017-07-25T23:28:09.226Z,15.37
2017-07-25T23:30:36.751Z,11.10
2017-07-25T23:33:05.079Z,12.57
2017-07-25T23:35:32.611Z,9.87
2017-07-25T23:38:00.176Z,8.80
2017-07-25T23:40:27.699Z,9.30
2017-07-25T23:42:56.028Z,10.63
2017-07-25T23:45:23.566Z,10.80
2017-07-25T23:47:51.098Z,9.80
2017-07-25T23:50:19.416Z,9.40
2017-07-25T23:52:46.943Z,14.00
2017-07-25T23:55:15.274Z,7.60
2017-07-25T23:57:42.801Z,9.57
